Avenger Field


Codes: KSWW/
Name: Avenger Field
City: Sweetwater
Country: United States
Elevation: 2380 ft.

Photos at Avenger Field


   Photos courtesy of SpottingLog. You can add your own sightings and photos by signing up for a free trial today.



No photos found.

Weather at Avenger Field


Time (UTC)DescriptionTempratureWindCloud coverageVisibilityPressureHumidity
21-Feb-2024 03:00Clear Sky18°C13 mph, SW6%10000m1018hPa29%
21-Feb-2024 06:00Clear Sky18°C16 mph, SW6%10000m1018hPa36%
21-Feb-2024 09:00Clear Sky16°C13 mph, SW3%10000m1018hPa49%
21-Feb-2024 12:00Clear Sky13°C13 mph, SW4%10000m1017hPa63%
21-Feb-2024 15:00Clear Sky16°C18 mph, SW2%10000m1017hPa57%
21-Feb-2024 18:00Clear Sky24°C22 mph, SW3%10000m1013hPa33%
21-Feb-2024 21:00Clear Sky29°C22 mph, SW5%10000m1008hPa18%
22-Feb-2024 00:00Scattered Clouds26°C18 mph, SW37%10000m1007hPa23%
22-Feb-2024 03:00Few Clouds20°C11 mph, SW14%10000m1010hPa34%
22-Feb-2024 06:00Clear Sky17°C16 mph, SW8%10000m1011hPa17%
22-Feb-2024 09:00Clear Sky15°C16 mph, SW0%10000m1011hPa22%
22-Feb-2024 12:00Clear Sky13°C13 mph, W0%10000m1011hPa24%
22-Feb-2024 15:00Clear Sky15°C20 mph, W0%10000m1013hPa30%
22-Feb-2024 18:00Clear Sky20°C20 mph, NW0%10000m1014hPa26%
22-Feb-2024 21:00Clear Sky20°C16 mph, N0%10000m1012hPa29%
23-Feb-2024 00:00Clear Sky18°C13 mph, N2%10000m1013hPa34%
23-Feb-2024 03:00Clear Sky14°C9 mph, NE0%10000m1016hPa43%
23-Feb-2024 06:00Few Clouds12°C9 mph, NE18%10000m1017hPa52%
23-Feb-2024 09:00Broken Clouds10°C7 mph, NE70%10000m1017hPa59%
23-Feb-2024 12:00Overcast Clouds9°C7 mph, NE85%10000m1018hPa63%
23-Feb-2024 15:00Overcast Clouds12°C4 mph, E93%10000m1020hPa53%
23-Feb-2024 18:00Broken Clouds17°C2 mph, SE69%10000m1019hPa37%
23-Feb-2024 21:00Broken Clouds20°C4 mph, SW64%10000m1015hPa30%
24-Feb-2024 00:00Broken Clouds19°C2 mph, SW82%10000m1015hPa34%
24-Feb-2024 03:00Overcast Clouds16°C9 mph, SE100%10000m1017hPa39%
24-Feb-2024 06:00Overcast Clouds14°C11 mph, S100%10000m1017hPa42%
24-Feb-2024 09:00Overcast Clouds13°C11 mph, S100%10000m1018hPa42%
24-Feb-2024 12:00Overcast Clouds12°C11 mph, SW100%10000m1018hPa48%
24-Feb-2024 15:00Scattered Clouds15°C13 mph, SW34%10000m1020hPa47%
24-Feb-2024 18:00Few Clouds21°C16 mph, SW17%10000m1018hPa33%
24-Feb-2024 21:00Clear Sky24°C18 mph, S1%10000m1014hPa26%
25-Feb-2024 00:00Clear Sky22°C16 mph, S9%10000m1013hPa29%
25-Feb-2024 03:00Broken Clouds19°C20 mph, S62%10000m1015hPa40%
25-Feb-2024 06:00Broken Clouds16°C22 mph, S72%10000m1014hPa46%
25-Feb-2024 09:00Overcast Clouds15°C20 mph, S97%10000m1013hPa53%
25-Feb-2024 12:00Overcast Clouds13°C20 mph, SW89%10000m1012hPa61%
25-Feb-2024 15:00Overcast Clouds15°C18 mph, SW100%10000m1013hPa56%
25-Feb-2024 18:00Overcast Clouds25°C18 mph, W93%10000m1011hPa18%
25-Feb-2024 21:00Overcast Clouds27°C20 mph, W100%10000m1008hPa11%
26-Feb-2024 00:00Broken Clouds25°C11 mph, W70%10000m1009hPa13%